Time;durP1;ratioP1;P1;durP2;ratioP2;P2;SDS_P1;SDS_P2;PMS_P1;PMS_P2;Temp;Humidity;BMP_temperature;BMP_pressure;BME280_temperature;BME280_humidity;BME280_pressure;Samples;Min_cycle;Max_cycle;Signal;HPM_P1;HPM_P2
2023/10/10 00:00:23;;;;;;;241.77;69.53;;;;;;;;;;5010570;28;20427;-47
2023/10/10 00:02:50;;;;;;;240.93;69.67;;;;;;;;;;5015114;28;20394;-49
2023/10/10 00:05:27;;;;;;;243.43;70.50;;;;;;;;;;5011924;28;20465;-47
2023/10/10 00:07:53;;;;;;;243.50;70.73;;;;;;;;;;5013881;28;20785;-47
2023/10/10 00:10:20;;;;;;;242.83;70.63;;;;;;;;;;5018200;28;20421;-47
2023/10/10 00:12:47;;;;;;;241.10;70.07;;;;;;;;;;5003213;28;20418;-47
2023/10/10 00:15:22;;;;;;;244.73;72.73;;;;;;;;;;5002936;28;20909;-47
2023/10/10 00:17:48;;;;;;;244.63;71.93;;;;;;;;;;5002995;28;20437;-47
2023/10/10 00:20:21;;;;;;;241.23;67.73;;;;;;;;;;5014467;28;20412;-47
2023/10/10 00:22:49;;;;;;;241.77;67.67;;;;;;;;;;5014730;28;20961;-49
2023/10/10 00:25:17;;;;;;;244.00;70.97;;;;;;;;;;5006845;28;20993;-49
2023/10/10 00:27:43;;;;;;;244.93;72.27;;;;;;;;;;5015292;28;20962;-47
2023/10/10 00:30:11;;;;;;;242.13;67.67;;;;;;;;;;5015067;28;20411;-47
2023/10/10 00:32:42;;;;;;;241.77;68.17;;;;;;;;;;5018138;28;20419;-48
2023/10/10 00:35:09;;;;;;;243.60;71.57;;;;;;;;;;5019584;28;20470;-48
2023/10/10 00:37:35;;;;;;;242.73;67.47;;;;;;;;;;5007886;28;20912;-47
2023/10/10 00:40:08;;;;;;;246.00;70.93;;;;;;;;;;5012734;28;20477;-48
2023/10/10 00:42:40;;;;;;;242.73;68.43;;;;;;;;;;5016163;28;20403;-48
2023/10/10 00:45:10;;;;;;;244.47;70.80;;;;;;;;;;5013960;28;20817;-48
2023/10/10 00:47:43;;;;;;;243.43;69.37;;;;;;;;;;5017133;28;20505;-47
2023/10/10 00:50:15;;;;;;;243.27;70.20;;;;;;;;;;5016295;28;20788;-47
2023/10/10 00:52:43;;;;;;;243.30;70.30;;;;;;;;;;5018712;28;20407;-49
2023/10/10 00:55:09;;;;;;;244.47;70.77;;;;;;;;;;5005768;28;20453;-48
2023/10/10 00:57:39;;;;;;;244.20;69.20;;;;;;;;;;5005481;28;20429;-47
2023/10/10 01:00:15;;;;;;;242.47;67.70;;;;;;;;;;5014004;28;20417;-48
2023/10/10 01:02:42;;;;;;;245.77;69.57;;;;;;;;;;5018308;28;20429;-48
2023/10/10 01:05:19;;;;;;;247.47;72.93;;;;;;;;;;5019958;28;20467;-48
2023/10/10 01:07:48;;;;;;;246.20;72.33;;;;;;;;;;5012749;28;20443;-48
2023/10/10 01:10:26;;;;;;;244.87;69.60;;;;;;;;;;5015071;28;20411;-48
2023/10/10 01:12:56;;;;;;;246.43;72.43;;;;;;;;;;5018380;28;20418;-60
2023/10/10 01:15:26;;;;;;;247.27;72.53;;;;;;;;;;5020754;28;20411;-48
2023/10/10 01:17:54;;;;;;;243.20;69.33;;;;;;;;;;5013481;28;20481;-48
2023/10/10 01:20:33;;;;;;;244.63;70.60;;;;;;;;;;5005389;28;20418;-48
2023/10/10 01:22:59;;;;;;;243.93;70.97;;;;;;;;;;5013672;28;20418;-47
2023/10/10 01:28:02;;;;;;;243.63;67.97;;;;;;;;;;5004944;28;20505;-47
2023/10/10 01:30:56;;;;;;;241.80;68.93;;;;;;;;;;5013338;28;20408;-47
2023/10/10 01:33:25;;;;;;;241.37;67.43;;;;;;;;;;5002188;28;20419;-46
2023/10/10 01:35:55;;;;;;;241.73;67.93;;;;;;;;;;5001953;28;20415;-47
2023/10/10 01:38:27;;;;;;;241.50;67.73;;;;;;;;;;5008701;28;20440;-48
2023/10/10 01:40:54;;;;;;;243.30;68.90;;;;;;;;;;5010187;28;20422;-48
2023/10/10 01:43:20;;;;;;;241.47;68.57;;;;;;;;;;5010990;28;20584;-48
2023/10/10 01:46:08;;;;;;;241.57;68.17;;;;;;;;;;5012830;28;20476;-48
2023/10/10 01:48:32;;;;;;;243.33;70.80;;;;;;;;;;5006979;28;20943;-49
2023/10/10 01:51:00;;;;;;;242.73;72.23;;;;;;;;;;5012805;28;20427;-47
2023/10/10 01:53:25;;;;;;;238.37;66.33;;;;;;;;;;5007525;28;20418;-48
2023/10/10 01:55:51;;;;;;;241.57;68.20;;;;;;;;;;5004645;28;20789;-49
2023/10/10 01:58:20;;;;;;;238.87;66.10;;;;;;;;;;5004579;28;20961;-48
2023/10/10 02:00:46;;;;;;;240.87;66.63;;;;;;;;;;5005224;28;20462;-48
2023/10/10 02:03:12;;;;;;;241.47;69.50;;;;;;;;;;5009681;28;20418;-47
2023/10/10 02:05:45;;;;;;;241.17;68.63;;;;;;;;;;5007859;28;21001;-47
2023/10/10 02:08:16;;;;;;;241.00;69.47;;;;;;;;;;5004079;28;20438;-48
2023/10/10 02:10:46;;;;;;;241.70;69.13;;;;;;;;;;5004621;28;20434;-47
2023/10/10 02:13:12;;;;;;;241.03;67.77;;;;;;;;;;5004436;28;20414;-47
2023/10/10 02:15:39;;;;;;;238.73;67.00;;;;;;;;;;5004485;28;20419;-47
2023/10/10 02:18:12;;;;;;;240.77;67.67;;;;;;;;;;5003953;28;20436;-48
2023/10/10 02:25:37;;;;;;;238.10;65.07;;;;;;;;;;5001107;28;20509;-47
2023/10/10 02:28:08;;;;;;;239.37;67.47;;;;;;;;;;5008384;28;20441;-49
2023/10/10 02:30:35;;;;;;;241.50;70.60;;;;;;;;;;5007065;28;20401;-48
2023/10/10 02:33:14;;;;;;;242.63;71.87;;;;;;;;;;5004200;28;20443;-47
2023/10/10 02:36:14;;;;;;;239.80;69.60;;;;;;;;;;5007665;28;20421;-48
2023/10/10 02:38:39;;;;;;;239.87;66.70;;;;;;;;;;5003269;28;20482;-48
2023/10/10 02:43:55;;;;;;;242.23;71.17;;;;;;;;;;5004419;28;20436;-47
2023/10/10 02:46:33;;;;;;;238.97;66.27;;;;;;;;;;5001178;28;20467;-47
2023/10/10 02:49:02;;;;;;;239.07;68.07;;;;;;;;;;5003599;28;20966;-48
2023/10/10 02:51:28;;;;;;;239.40;66.37;;;;;;;;;;5011941;28;20921;-48
2023/10/10 02:53:54;;;;;;;241.57;70.77;;;;;;;;;;5003872;28;20473;-48
2023/10/10 02:56:20;;;;;;;241.67;70.57;;;;;;;;;;5007722;28;20418;-48
2023/10/10 02:58:54;;;;;;;240.83;70.50;;;;;;;;;;5007705;28;20442;-47
2023/10/10 03:04:07;;;;;;;242.97;70.17;;;;;;;;;;5003738;28;20416;-47
2023/10/10 03:06:33;;;;;;;240.17;68.73;;;;;;;;;;5003711;28;20465;-48
2023/10/10 03:12:04;;;;;;;238.77;66.83;;;;;;;;;;5003731;28;20425;-47
2023/10/10 03:14:33;;;;;;;239.67;67.90;;;;;;;;;;5003733;28;20411;-48
2023/10/10 03:17:03;;;;;;;241.90;68.63;;;;;;;;;;5003445;28;20917;-47
2023/10/10 03:19:37;;;;;;;242.70;71.67;;;;;;;;;;5006086;28;20435;-48
2023/10/10 03:30:21;;;;;;;239.33;67.87;;;;;;;;;;5000460;28;20410;-48
2023/10/10 03:33:00;;;;;;;239.67;67.83;;;;;;;;;;5007938;28;20486;-48
2023/10/10 03:35:51;;;;;;;241.33;70.13;;;;;;;;;;5000226;28;20898;-47
2023/10/10 03:38:31;;;;;;;241.20;67.87;;;;;;;;;;5007569;28;20461;-48
2023/10/10 05:25:13;;;;;;;241.17;66.43;;;;;;;;;;5016201;28;20469;-48
2023/10/10 05:27:41;;;;;;;241.53;67.00;;;;;;;;;;5013116;28;21072;-47
2023/10/10 05:30:25;;;;;;;239.23;65.27;;;;;;;;;;5005214;28;20488;-48
2023/10/10 05:33:02;;;;;;;239.90;64.67;;;;;;;;;;5013460;28;20438;-48
2023/10/10 05:35:29;;;;;;;239.60;65.03;;;;;;;;;;5007054;28;20435;-48
2023/10/10 05:37:55;;;;;;;243.50;69.60;;;;;;;;;;5012868;28;20984;-49
2023/10/10 05:40:21;;;;;;;236.00;64.03;;;;;;;;;;5005129;28;20419;-47
2023/10/10 05:42:47;;;;;;;238.07;65.37;;;;;;;;;;5013228;28;20417;-47
2023/10/10 05:45:14;;;;;;;237.30;65.03;;;;;;;;;;5012835;28;20506;-48
2023/10/10 05:47:40;;;;;;;238.67;66.07;;;;;;;;;;5012680;28;20431;-48
2023/10/10 05:50:10;;;;;;;239.97;67.10;;;;;;;;;;5005786;28;20423;-48
2023/10/10 05:52:38;;;;;;;238.93;65.53;;;;;;;;;;5013009;28;20411;-48
2023/10/10 05:55:05;;;;;;;238.87;65.80;;;;;;;;;;5004833;28;20461;-47
2023/10/10 05:57:33;;;;;;;241.33;67.77;;;;;;;;;;5004416;28;20885;-48
2023/10/10 05:59:59;;;;;;;240.53;66.17;;;;;;;;;;5004647;28;20419;-48
2023/10/10 06:02:28;;;;;;;241.37;68.77;;;;;;;;;;5007990;28;20417;-47
2023/10/10 06:04:54;;;;;;;240.97;68.83;;;;;;;;;;5008934;28;20464;-48
2023/10/10 06:07:20;;;;;;;243.30;67.70;;;;;;;;;;5012055;28;20428;-47
2023/10/10 06:09:51;;;;;;;239.60;66.77;;;;;;;;;;5016617;28;20418;-46
2023/10/10 06:12:18;;;;;;;240.27;65.60;;;;;;;;;;5008844;28;20422;-46
2023/10/10 06:14:46;;;;;;;238.07;64.43;;;;;;;;;;5007298;28;20414;-48
2023/10/10 06:17:12;;;;;;;240.27;67.17;;;;;;;;;;5018996;28;20416;-47
2023/10/10 06:19:38;;;;;;;240.83;68.57;;;;;;;;;;5012395;28;20460;-49
2023/10/10 06:22:08;;;;;;;242.80;71.87;;;;;;;;;;5015076;28;20429;-48
2023/10/10 06:24:35;;;;;;;240.77;71.43;;;;;;;;;;5012339;28;21044;-47
2023/10/10 06:27:01;;;;;;;239.17;68.83;;;;;;;;;;5018247;28;20496;-48
2023/10/10 06:29:30;;;;;;;241.30;69.83;;;;;;;;;;5016698;28;20865;-47
2023/10/10 06:31:59;;;;;;;243.17;71.23;;;;;;;;;;5014317;28;20411;-48
2023/10/10 06:34:34;;;;;;;242.27;70.30;;;;;;;;;;5012302;28;20492;-48
2023/10/10 06:37:07;;;;;;;241.27;68.33;;;;;;;;;;5013487;28;20451;-47
2023/10/10 06:39:33;;;;;;;244.57;70.87;;;;;;;;;;5015444;28;20432;-47
2023/10/10 06:41:59;;;;;;;240.97;69.33;;;;;;;;;;5017800;28;20955;-47
2023/10/10 06:44:39;;;;;;;242.47;69.30;;;;;;;;;;5017260;28;20514;-47
2023/10/10 06:47:08;;;;;;;240.00;67.57;;;;;;;;;;5010995;28;20433;-47
2023/10/10 06:49:43;;;;;;;241.93;68.53;;;;;;;;;;5009040;28;20799;-47
2023/10/10 06:52:18;;;;;;;239.30;66.53;;;;;;;;;;5010542;28;20951;-47
2023/10/10 06:54:45;;;;;;;241.93;68.90;;;;;;;;;;5016348;28;20411;-48
2023/10/10 06:57:17;;;;;;;241.73;68.03;;;;;;;;;;5011198;28;20415;-47
2023/10/10 06:59:43;;;;;;;242.80;70.30;;;;;;;;;;5003560;28;20445;-48
2023/10/10 07:02:21;;;;;;;240.30;67.83;;;;;;;;;;5011869;28;20905;-48
2023/10/10 07:04:52;;;;;;;240.17;65.77;;;;;;;;;;5014456;28;20465;-47
2023/10/10 07:07:19;;;;;;;242.00;68.13;;;;;;;;;;4999693;28;20926;-49
2023/10/10 07:09:45;;;;;;;239.07;66.10;;;;;;;;;;5011850;28;20419;-47
2023/10/10 07:12:13;;;;;;;242.17;70.57;;;;;;;;;;5019126;28;20425;-48
2023/10/10 07:14:47;;;;;;;240.27;69.33;;;;;;;;;;5005272;28;20475;-48
2023/10/10 07:17:13;;;;;;;244.17;70.47;;;;;;;;;;5011148;28;20803;-48
2023/10/10 07:22:41;;;;;;;242.57;69.63;;;;;;;;;;4989241;28;20895;-48
2023/10/10 07:25:43;;;;;;;241.70;69.87;;;;;;;;;;5012519;28;20453;-48
2023/10/10 07:28:01;;;;;;;239.97;67.67;;;;;;;;;;5004711;28;20432;-47
2023/10/10 07:30:34;;;;;;;244.87;73.93;;;;;;;;;;5015998;28;20411;-47
2023/10/10 07:33:03;;;;;;;240.83;67.97;;;;;;;;;;5013706;28;20775;-48
2023/10/10 07:35:35;;;;;;;241.53;69.63;;;;;;;;;;5015604;28;20423;-48
2023/10/10 07:38:01;;;;;;;243.00;72.17;;;;;;;;;;5015250;28;20490;-47
2023/10/10 07:40:31;;;;;;;240.47;68.67;;;;;;;;;;5022722;28;20498;-48
2023/10/10 07:42:59;;;;;;;241.10;68.67;;;;;;;;;;5015337;28;20779;-47
2023/10/10 07:45:43;;;;;;;242.03;72.43;;;;;;;;;;5017845;28;20488;-48
2023/10/10 07:50:46;;;;;;;242.13;71.23;;;;;;;;;;5015365;28;20918;-48
2023/10/10 07:53:12;;;;;;;244.13;72.77;;;;;;;;;;5015050;28;20413;-48
2023/10/10 07:58:24;;;;;;;241.87;70.60;;;;;;;;;;5015020;28;20499;-48
2023/10/10 08:00:52;;;;;;;244.00;74.37;;;;;;;;;;5017430;28;20497;-48
2023/10/10 08:03:21;;;;;;;243.07;73.10;;;;;;;;;;5027179;28;20900;-48
2023/10/10 08:05:48;;;;;;;244.37;73.37;;;;;;;;;;5015041;28;20466;-48
2023/10/10 08:08:17;;;;;;;242.87;74.53;;;;;;;;;;5025169;28;20438;-48
2023/10/10 08:10:49;;;;;;;250.23;80.47;;;;;;;;;;5019038;28;20409;-47
2023/10/10 08:13:15;;;;;;;243.13;74.10;;;;;;;;;;5008909;28;20496;-48
2023/10/10 08:18:49;;;;;;;245.10;77.13;;;;;;;;;;5014743;28;20439;-48
2023/10/10 08:21:15;;;;;;;245.20;76.40;;;;;;;;;;5006787;28;20409;-48
2023/10/10 08:23:46;;;;;;;245.20;77.87;;;;;;;;;;5006553;28;20955;-48
2023/10/10 08:26:18;;;;;;;243.83;76.23;;;;;;;;;;5014692;28;20506;-47
2023/10/10 08:28:45;;;;;;;248.57;83.33;;;;;;;;;;5013153;28;20437;-48
2023/10/10 08:31:13;;;;;;;246.20;78.20;;;;;;;;;;5014637;28;20446;-47
2023/10/10 08:33:39;;;;;;;245.53;80.03;;;;;;;;;;5026845;28;20416;-48
2023/10/10 08:36:05;;;;;;;250.17;86.37;;;;;;;;;;5024907;28;20784;-47
2023/10/10 08:38:31;;;;;;;245.13;78.37;;;;;;;;;;5020181;28;20503;-47
2023/10/10 08:41:01;;;;;;;245.70;80.37;;;;;;;;;;5033673;28;20940;-49
2023/10/10 08:43:31;;;;;;;249.87;87.27;;;;;;;;;;5032780;28;20908;-49
2023/10/10 08:45:59;;;;;;;244.93;80.10;;;;;;;;;;5034169;28;20452;-48
2023/10/10 08:48:27;;;;;;;249.47;85.07;;;;;;;;;;5015163;28;20436;-48
2023/10/10 08:51:03;;;;;;;248.03;84.47;;;;;;;;;;5014186;28;20477;-47
2023/10/10 08:53:29;;;;;;;248.63;84.07;;;;;;;;;;5028235;28;20456;-47
2023/10/10 08:55:58;;;;;;;252.10;88.33;;;;;;;;;;5022585;28;20418;-48
2023/10/10 08:58:24;;;;;;;249.50;86.53;;;;;;;;;;5022625;28;20445;-48
2023/10/10 09:00:51;;;;;;;250.43;88.37;;;;;;;;;;5028220;28;20411;-48
2023/10/10 09:03:17;;;;;;;254.17;95.10;;;;;;;;;;5014284;28;20446;-48
2023/10/10 09:05:44;;;;;;;252.27;92.77;;;;;;;;;;5014065;28;20459;-49
2023/10/10 09:08:16;;;;;;;255.77;101.17;;;;;;;;;;5032916;28;20456;-48
2023/10/10 09:10:47;;;;;;;256.30;98.53;;;;;;;;;;5016174;28;20415;-49
2023/10/10 09:13:13;;;;;;;256.93;102.60;;;;;;;;;;5029081;28;20499;-48
2023/10/10 09:15:54;;;;;;;262.43;113.27;;;;;;;;;;5021154;28;20423;-48
2023/10/10 09:18:25;;;;;;;259.40;112.13;;;;;;;;;;5024250;28;21060;-48
2023/10/10 09:20:53;;;;;;;264.07;120.43;;;;;;;;;;5024558;28;20415;-48
2023/10/10 09:23:32;;;;;;;261.50;119.17;;;;;;;;;;5013585;28;20415;-49
2023/10/10 09:29:00;;;;;;;262.03;121.73;;;;;;;;;;5027464;28;20473;-49
2023/10/10 09:31:26;;;;;;;258.30;118.70;;;;;;;;;;5013747;28;20909;-49
2023/10/10 09:33:55;;;;;;;262.53;123.20;;;;;;;;;;5011239;28;20424;-48
2023/10/10 09:36:26;;;;;;;260.17;123.87;;;;;;;;;;5007226;28;20492;-49
2023/10/10 09:38:55;;;;;;;260.77;126.67;;;;;;;;;;5010224;28;20528;-48
2023/10/10 09:41:36;;;;;;;262.30;128.37;;;;;;;;;;5010744;28;20431;-49
2023/10/10 09:49:51;;;;;;;262.17;125.77;;;;;;;;;;5007315;28;20823;-49
2023/10/10 09:55:25;;;;;;;261.83;126.40;;;;;;;;;;5011264;28;21063;-48
2023/10/10 09:58:41;;;;;;;261.73;124.23;;;;;;;;;;5010388;28;20505;-49
2023/10/10 10:06:00;;;;;;;261.07;127.33;;;;;;;;;;5008447;28;20529;-49
2023/10/10 10:08:42;;;;;;;266.60;133.40;;;;;;;;;;5013504;28;20451;-48
2023/10/10 10:11:16;;;;;;;261.17;126.33;;;;;;;;;;5010143;28;20501;-49
2023/10/10 10:13:54;;;;;;;264.13;133.10;;;;;;;;;;5007934;28;20419;-48
2023/10/10 10:16:35;;;;;;;266.00;132.47;;;;;;;;;;5003399;28;20517;-48
2023/10/10 10:19:17;;;;;;;264.93;130.47;;;;;;;;;;5008061;28;21006;-48
2023/10/10 10:21:55;;;;;;;261.40;125.80;;;;;;;;;;5011422;28;20972;-48
2023/10/10 10:24:30;;;;;;;260.73;122.43;;;;;;;;;;5005124;28;20423;-48
2023/10/10 10:27:22;;;;;;;259.87;123.07;;;;;;;;;;5012066;28;20985;-48
2023/10/10 10:29:56;;;;;;;260.80;125.67;;;;;;;;;;4992926;28;20404;-48
2023/10/10 10:32:25;;;;;;;260.87;124.83;;;;;;;;;;5032230;28;20394;-48
2023/10/10 10:34:57;;;;;;;259.73;125.43;;;;;;;;;;5013334;28;20777;-48
2023/10/10 10:37:28;;;;;;;264.50;129.27;;;;;;;;;;5015621;28;20426;-48
2023/10/10 10:42:51;;;;;;;258.97;121.40;;;;;;;;;;5018019;28;20465;-48
2023/10/10 10:45:33;;;;;;;264.43;127.77;;;;;;;;;;5010133;28;20908;-48
2023/10/10 10:47:59;;;;;;;261.47;124.07;;;;;;;;;;5007960;28;20443;-48
2023/10/10 10:50:29;;;;;;;259.77;124.37;;;;;;;;;;5014169;28;20472;-48
2023/10/10 10:53:06;;;;;;;262.07;125.17;;;;;;;;;;5010867;28;20949;-48
2023/10/10 10:55:39;;;;;;;261.03;129.07;;;;;;;;;;5015322;28;20414;-48
2023/10/10 10:58:26;;;;;;;260.13;127.50;;;;;;;;;;5029222;28;20422;-49
2023/10/10 11:01:07;;;;;;;261.40;129.20;;;;;;;;;;5014119;28;20391;-48
2023/10/10 11:03:36;;;;;;;264.07;131.70;;;;;;;;;;5030191;28;20459;-48
2023/10/10 11:06:06;;;;;;;265.83;134.73;;;;;;;;;;5011861;28;20459;-49
2023/10/10 11:14:00;;;;;;;266.10;145.00;;;;;;;;;;5014324;28;20461;-49
2023/10/10 11:16:45;;;;;;;268.10;149.60;;;;;;;;;;5026612;28;20417;-48
2023/10/10 11:21:53;;;;;;;267.20;150.70;;;;;;;;;;5012127;28;20509;-49
2023/10/10 11:24:26;;;;;;;268.50;153.47;;;;;;;;;;5022760;28;20472;-49
2023/10/10 11:27:07;;;;;;;269.57;154.87;;;;;;;;;;5022684;28;20967;-49
2023/10/10 11:29:44;;;;;;;269.93;160.93;;;;;;;;;;5019126;28;20426;-49
2023/10/10 11:32:12;;;;;;;273.47;160.03;;;;;;;;;;5009110;28;20781;-48
2023/10/10 11:34:44;;;;;;;268.73;156.50;;;;;;;;;;4998924;28;20411;-48
2023/10/10 11:37:21;;;;;;;271.23;165.73;;;;;;;;;;5003395;28;20407;-48
2023/10/10 11:40:19;;;;;;;268.03;162.20;;;;;;;;;;5003579;28;20453;-48
2023/10/10 11:42:47;;;;;;;269.37;162.70;;;;;;;;;;5011801;28;20983;-48
2023/10/10 11:45:20;;;;;;;268.83;159.93;;;;;;;;;;5011466;28;20451;-48
2023/10/10 11:47:47;;;;;;;270.97;164.93;;;;;;;;;;5014438;28;20423;-49
2023/10/10 11:50:17;;;;;;;270.13;165.97;;;;;;;;;;5011164;28;20431;-48
2023/10/10 11:52:52;;;;;;;269.87;162.60;;;;;;;;;;4991681;28;20404;-49
2023/10/10 11:55:20;;;;;;;265.53;158.33;;;;;;;;;;4992172;28;20870;-48
2023/10/10 11:57:48;;;;;;;273.50;173.90;;;;;;;;;;5010244;28;20432;-49
2023/10/10 12:00:21;;;;;;;267.63;164.67;;;;;;;;;;5024491;28;20411;-48
2023/10/10 12:02:48;;;;;;;268.20;166.30;;;;;;;;;;5016125;28;20410;-48
2023/10/10 12:07:58;;;;;;;265.63;159.67;;;;;;;;;;5011182;28;20506;-48
2023/10/10 12:10:31;;;;;;;266.03;160.97;;;;;;;;;;5011397;28;20450;-48
2023/10/10 12:12:57;;;;;;;264.23;161.27;;;;;;;;;;5030246;28;20406;-48
2023/10/10 12:15:23;;;;;;;265.33;161.57;;;;;;;;;;5017312;28;20407;-48
2023/10/10 12:17:52;;;;;;;269.30;163.67;;;;;;;;;;5006414;28;20791;-48
2023/10/10 12:20:18;;;;;;;272.37;168.93;;;;;;;;;;5014780;28;20407;-48
2023/10/10 12:22:44;;;;;;;265.13;160.90;;;;;;;;;;5014888;28;20783;-49
2023/10/10 12:25:13;;;;;;;266.87;162.60;;;;;;;;;;5016045;28;20689;-48
2023/10/10 12:27:46;;;;;;;272.13;168.27;;;;;;;;;;5014245;28;20831;-48
2023/10/10 12:30:13;;;;;;;271.30;165.00;;;;;;;;;;5014549;28;20749;-48
2023/10/10 12:32:39;;;;;;;265.87;163.40;;;;;;;;;;5014664;28;20418;-48
2023/10/10 12:35:10;;;;;;;270.50;165.33;;;;;;;;;;5014455;28;20419;-48
2023/10/10 12:37:37;;;;;;;270.97;162.93;;;;;;;;;;5007954;28;20518;-48
2023/10/10 12:40:09;;;;;;;268.27;163.70;;;;;;;;;;5007626;28;20489;-49
2023/10/10 12:42:35;;;;;;;266.93;158.57;;;;;;;;;;5008184;28;20907;-48
2023/10/10 12:45:01;;;;;;;267.67;168.30;;;;;;;;;;5012415;28;20472;-48
2023/10/10 12:47:31;;;;;;;269.50;164.17;;;;;;;;;;5017315;28;20497;-48
2023/10/10 12:50:00;;;;;;;269.43;165.67;;;;;;;;;;5025050;28;20498;-48
2023/10/10 12:52:34;;;;;;;270.97;168.80;;;;;;;;;;5014309;28;20509;-48
2023/10/10 12:55:00;;;;;;;266.10;162.53;;;;;;;;;;5015547;28;20414;-48
2023/10/10 12:57:32;;;;;;;268.70;158.77;;;;;;;;;;5013923;28;20469;-48
2023/10/10 13:00:23;;;;;;;270.83;170.23;;;;;;;;;;5026815;28;20945;-48
2023/10/10 13:02:44;;;;;;;265.27;154.60;;;;;;;;;;5013978;28;20423;-48
2023/10/10 13:05:12;;;;;;;262.40;154.80;;;;;;;;;;5013825;28;20454;-48
2023/10/10 13:07:41;;;;;;;267.43;157.20;;;;;;;;;;5014923;28;20410;-48
2023/10/10 13:10:10;;;;;;;264.97;154.27;;;;;;;;;;5013855;28;20453;-49
2023/10/10 13:12:38;;;;;;;265.63;154.73;;;;;;;;;;5013742;28;20965;-49
2023/10/10 13:15:27;;;;;;;262.53;149.90;;;;;;;;;;5005680;28;20412;-49
2023/10/10 13:17:53;;;;;;;264.57;150.27;;;;;;;;;;5013334;28;20434;-48
2023/10/10 13:20:21;;;;;;;266.53;153.07;;;;;;;;;;5013617;28;20407;-48
2023/10/10 13:22:53;;;;;;;264.63;154.00;;;;;;;;;;5005537;28;20419;-48
2023/10/10 13:25:20;;;;;;;267.70;154.67;;;;;;;;;;5013609;28;20465;-48
2023/10/10 13:27:46;;;;;;;268.70;167.53;;;;;;;;;;5013265;28;20434;-49
2023/10/10 13:30:13;;;;;;;263.57;153.50;;;;;;;;;;5013364;28;20415;-48
2023/10/10 13:32:41;;;;;;;264.90;151.37;;;;;;;;;;5013440;28;20453;-48
2023/10/10 13:35:08;;;;;;;270.87;156.63;;;;;;;;;;5055008;22;21021;-51
2023/10/10 13:37:35;;;;;;;262.00;151.47;;;;;;;;;;5031965;28;20501;-51
2023/10/10 13:40:01;;;;;;;262.93;151.63;;;;;;;;;;5024871;28;20473;-48
2023/10/10 13:42:27;;;;;;;265.83;160.43;;;;;;;;;;5030395;28;20560;-49
2023/10/10 13:45:11;;;;;;;264.77;154.93;;;;;;;;;;5025008;28;20427;-49
2023/10/10 13:47:39;;;;;;;260.10;150.73;;;;;;;;;;5026244;28;20403;-48
2023/10/10 13:53:12;;;;;;;264.30;151.20;;;;;;;;;;4971474;28;20484;-48
2023/10/10 13:55:38;;;;;;;259.30;144.43;;;;;;;;;;5015152;28;20458;-48
2023/10/10 13:58:07;;;;;;;261.27;146.20;;;;;;;;;;5028696;28;20414;-48
2023/10/10 14:00:35;;;;;;;263.80;148.50;;;;;;;;;;5027047;28;20440;-48
2023/10/10 14:03:03;;;;;;;264.67;144.23;;;;;;;;;;5022885;28;20414;-48
2023/10/10 14:05:30;;;;;;;265.37;151.83;;;;;;;;;;5026142;28;20596;-48
2023/10/10 14:07:56;;;;;;;260.10;142.87;;;;;;;;;;5024168;28;20897;-48
2023/10/10 14:10:22;;;;;;;264.23;150.93;;;;;;;;;;5024092;28;20414;-48
2023/10/10 14:12:50;;;;;;;264.13;150.23;;;;;;;;;;5024415;28;20929;-48
2023/10/10 14:15:18;;;;;;;264.03;153.50;;;;;;;;;;5028557;28;20469;-48
2023/10/10 14:17:46;;;;;;;262.90;149.30;;;;;;;;;;5020374;28;20426;-48
2023/10/10 14:20:21;;;;;;;261.33;148.13;;;;;;;;;;5028801;28;20411;-48
2023/10/10 14:22:51;;;;;;;264.50;150.73;;;;;;;;;;5028546;28;20421;-48
2023/10/10 14:25:17;;;;;;;263.93;150.53;;;;;;;;;;5024059;28;21031;-48
2023/10/10 14:27:43;;;;;;;261.70;147.63;;;;;;;;;;5023795;28;20972;-49
2023/10/10 14:30:23;;;;;;;261.63;147.33;;;;;;;;;;5023819;28;21446;-48
2023/10/10 14:32:54;;;;;;;259.70;146.20;;;;;;;;;;5023893;28;20457;-48
2023/10/10 14:35:22;;;;;;;263.50;147.17;;;;;;;;;;5031868;28;20457;-48
2023/10/10 14:37:50;;;;;;;266.40;157.17;;;;;;;;;;5023114;28;20505;-49
2023/10/10 14:40:16;;;;;;;265.13;151.27;;;;;;;;;;5027992;28;20415;-48
2023/10/10 14:42:42;;;;;;;264.57;151.07;;;;;;;;;;5027842;28;20410;-48
2023/10/10 14:45:09;;;;;;;263.73;147.77;;;;;;;;;;5020984;28;20507;-48
2023/10/10 14:47:39;;;;;;;262.03;147.13;;;;;;;;;;5026293;28;20403;-48
2023/10/10 14:50:10;;;;;;;263.63;149.97;;;;;;;;;;5031741;28;20402;-48
2023/10/10 14:52:40;;;;;;;261.97;145.77;;;;;;;;;;5036129;28;20417;-48
2023/10/10 14:55:23;;;;;;;263.17;148.13;;;;;;;;;;5023479;28;20431;-48
2023/10/10 14:57:56;;;;;;;261.80;147.87;;;;;;;;;;5023277;28;20525;-48
2023/10/10 15:00:23;;;;;;;265.23;148.07;;;;;;;;;;5032490;28;20800;-49
2023/10/10 15:02:53;;;;;;;264.53;147.23;;;;;;;;;;5034216;28;20886;-48
2023/10/10 15:05:19;;;;;;;270.87;150.10;;;;;;;;;;5027393;28;20557;-48
2023/10/10 15:07:45;;;;;;;268.40;146.23;;;;;;;;;;5027211;28;20410;-48
2023/10/10 15:10:11;;;;;;;264.37;138.93;;;;;;;;;;5023334;28;20859;-48
2023/10/10 15:12:37;;;;;;;266.47;141.37;;;;;;;;;;5023283;28;20402;-48
2023/10/10 15:15:04;;;;;;;265.77;142.63;;;;;;;;;;5023404;28;20440;-48
2023/10/10 15:17:30;;;;;;;265.13;136.10;;;;;;;;;;5021692;28;20930;-48
2023/10/10 15:19:56;;;;;;;265.77;133.27;;;;;;;;;;5023320;28;20498;-48
2023/10/10 15:22:25;;;;;;;265.90;133.27;;;;;;;;;;5026886;28;20458;-48
2023/10/10 15:24:51;;;;;;;266.80;130.27;;;;;;;;;;5027800;28;20446;-48
2023/10/10 15:27:18;;;;;;;268.33;129.10;;;;;;;;;;5019387;28;20411;-48
2023/10/10 15:29:44;;;;;;;264.13;127.70;;;;;;;;;;5027381;28;20434;-48
2023/10/10 15:32:13;;;;;;;260.57;121.37;;;;;;;;;;5031138;28;20487;-48
2023/10/10 15:34:40;;;;;;;265.60;126.43;;;;;;;;;;5022890;28;20430;-48
2023/10/10 15:37:14;;;;;;;263.23;124.67;;;;;;;;;;5023077;28;20929;-48
2023/10/10 15:39:41;;;;;;;262.80;121.67;;;;;;;;;;5024197;28;20946;-48
2023/10/10 15:42:07;;;;;;;260.63;121.07;;;;;;;;;;5022274;28;20506;-47
2023/10/10 15:44:33;;;;;;;263.13;121.53;;;;;;;;;;5025132;28;20496;-48
2023/10/10 15:46:59;;;;;;;265.20;121.27;;;;;;;;;;5028870;28;20458;-48
2023/10/10 15:49:25;;;;;;;262.67;117.27;;;;;;;;;;5033499;28;20402;-47
2023/10/10 15:51:52;;;;;;;260.20;115.97;;;;;;;;;;5026984;28;20415;-50
2023/10/10 15:54:19;;;;;;;257.47;111.13;;;;;;;;;;5033536;28;20410;-50
2023/10/10 15:56:48;;;;;;;257.40;112.43;;;;;;;;;;5035210;28;20830;-50
2023/10/10 15:59:17;;;;;;;258.27;111.63;;;;;;;;;;5034547;28;20471;-50
2023/10/10 16:01:46;;;;;;;258.90;112.13;;;;;;;;;;5046520;28;20423;-50
2023/10/10 16:04:13;;;;;;;260.20;111.30;;;;;;;;;;5045744;28;20501;-50
2023/10/10 16:06:41;;;;;;;259.23;114.00;;;;;;;;;;5034747;28;20511;-50
2023/10/10 16:09:12;;;;;;;259.20;109.33;;;;;;;;;;5034498;28;20489;-50
2023/10/10 16:11:43;;;;;;;259.10;109.63;;;;;;;;;;5034644;28;20404;-50
2023/10/10 16:14:12;;;;;;;257.90;108.97;;;;;;;;;;5034878;28;20404;-50
2023/10/10 16:16:45;;;;;;;257.00;107.90;;;;;;;;;;5034467;28;20478;-50
2023/10/10 16:19:14;;;;;;;256.40;107.17;;;;;;;;;;5034416;28;20451;-50
2023/10/10 16:21:42;;;;;;;258.53;110.50;;;;;;;;;;5034364;28;20676;-50
2023/10/10 16:24:11;;;;;;;258.20;111.53;;;;;;;;;;5034445;28;20416;-50
2023/10/10 16:26:37;;;;;;;261.13;116.57;;;;;;;;;;5034254;28;20563;-50
2023/10/10 16:29:05;;;;;;;259.13;108.93;;;;;;;;;;5034212;28;20418;-50
2023/10/10 16:31:34;;;;;;;254.00;104.57;;;;;;;;;;5034224;28;20452;-50
2023/10/10 16:34:02;;;;;;;256.53;104.30;;;;;;;;;;5034309;28;20422;-50
2023/10/10 16:36:28;;;;;;;257.23;106.23;;;;;;;;;;5034053;28;20447;-50
2023/10/10 16:38:55;;;;;;;257.23;103.83;;;;;;;;;;5033270;28;20428;-50
2023/10/10 16:41:24;;;;;;;256.47;105.87;;;;;;;;;;5020942;28;20476;-50
2023/10/10 16:43:51;;;;;;;256.27;102.07;;;;;;;;;;5025784;28;20426;-50
2023/10/10 16:46:18;;;;;;;256.03;103.00;;;;;;;;;;5030460;28;20526;-50
2023/10/10 16:48:44;;;;;;;257.97;103.07;;;;;;;;;;5029595;28;20890;-50
2023/10/10 16:51:15;;;;;;;256.33;100.13;;;;;;;;;;5022807;28;20423;-50
2023/10/10 16:53:43;;;;;;;258.60;103.43;;;;;;;;;;5021430;28;20410;-50
2023/10/10 16:56:12;;;;;;;258.40;101.37;;;;;;;;;;5025960;28;20487;-50
2023/10/10 16:58:39;;;;;;;256.13;100.27;;;;;;;;;;5025676;28;20618;-50
2023/10/10 17:01:07;;;;;;;258.73;102.90;;;;;;;;;;5033131;28;20795;-50
2023/10/10 17:03:33;;;;;;;254.13;96.40;;;;;;;;;;5027701;28;20462;-50
2023/10/10 17:06:00;;;;;;;254.43;97.60;;;;;;;;;;5023228;28;21063;-50
2023/10/10 17:08:26;;;;;;;258.57;98.97;;;;;;;;;;5028542;28;20418;-50